aviador You're here:

KAHN Decoded Metar

ATHENS in GA, USA
Report Time2018-01-19 10:51:00
UTC Time2018-01-19 11:18:38
Flight Rules vfr VFR
WindCalm
Visibility9999 m
Phenomena:N/A
Clouds:N/A
Expected CloudBase > 2,800 ft AGL from Temp-Dew spread
CeilingNone
Temp-3°C (ISA -16)
Dew Point-10°C (59% RH)
AAT-6.0°C
QNH1024 hPa
Density Alt-1,545 ft
Elevation801 ft
Report Wrong Elevation
Raw Report
METAR KAHN 191051Z AUTO 00000KT 10SM CLR M03/M10 A3024 RMK AO2 SLP247
T10281100=

Extra information for KAHN:More info

Metar Taf Metar & Taf Last 4 Metars F.Rules Stats Wind Profile Meteogram Temp Stats Airport Information Weather charts Add Link Nearby VenuesMetar ALERT Operation Metar Decoded Social comments

AIRNAV info for KAHN